Port Huron, Michigan
Current Conditions -  °F | °C
As of 9:00 AM on Tuesday 21 Oct 2014 (Local Time) from CYZR Reporting Station
Overcast Overcast  
Wind Chill: 41°   Ceiling: 2100
Heat Index: 48°   Visibility: 9mi
Dew Point: 41°   Wind: 23mph
Humidity: 76%   Direction: 350°N
Pressure: 29.95"   Gusts: 29mph
Location:  42.98°N, 82.43°W
Report Text: CYZR 211300Z AUTO 35020G25KT 9SM BKN021 OVC028 09/05 A2995 RMK SLP143
Loading
Personal Weather Stations






























Interactive Weather Map
Tropical Storm Tracking
New forecast layout! Learn more

10-Day Weather Forecast

Advertisements
Track Severe Weather on mobile